Heilmandale, Pennsylvania
Current Conditions -  °F | °C
As of 12:02 PM on Thursday 23 Oct 2014 (Local Time) from KMUI Reporting Station
Scattered Clouds Scattered Clouds  
Wind Chill: 55°   Ceiling: Unl
Heat Index: 55°   Visibility: 10mi
Dew Point: 46°   Wind: 14mph
Humidity: 72%   Direction: 350°N
Pressure: 29.84"   Gusts: 33mph
Location:  40.2957°N, 76.4189°W
Report Text: KMUI 231602Z AUTO 35012G29KT 320V020 10SM SCT026 13/08 A2984 RMK AO2 $
Loading
Personal Weather Stations






























Interactive Weather Map
Tropical Storm Tracking
New forecast layout! Learn more

10-Day Weather Forecast

Advertisements
Track Severe Weather on mobile